sensor_id;sensor_type;location;lat;lon;timestamp;P1;durP1;ratioP1;P2;durP2;ratioP2
49139;SDS011;34959;49.310;8.646;2023-02-21T00:00:57;2.53;;;1.30;;
49139;SDS011;34959;49.310;8.646;2023-02-21T00:03:41;1.67;;;1.10;;
49139;SDS011;34959;49.310;8.646;2023-02-21T00:06:24;2.83;;;1.23;;
49139;SDS011;34959;49.310;8.646;2023-02-21T00:09:08;3.25;;;1.40;;
49139;SDS011;34959;49.310;8.646;2023-02-21T00:11:52;2.83;;;1.50;;
49139;SDS011;34959;49.310;8.646;2023-02-21T00:14:39;1.88;;;1.13;;
49139;SDS011;34959;49.310;8.646;2023-02-21T00:17:25;1.85;;;1.05;;
49139;SDS011;34959;49.310;8.646;2023-02-21T00:20:09;2.25;;;1.20;;
49139;SDS011;34959;49.310;8.646;2023-02-21T00:22:53;1.95;;;1.23;;
49139;SDS011;34959;49.310;8.646;2023-02-21T00:25:37;2.25;;;1.13;;
49139;SDS011;34959;49.310;8.646;2023-02-21T00:28:20;1.77;;;1.05;;
49139;SDS011;34959;49.310;8.646;2023-02-21T00:31:05;3.25;;;1.00;;
49139;SDS011;34959;49.310;8.646;2023-02-21T00:33:49;2.63;;;1.10;;
49139;SDS011;34959;49.310;8.646;2023-02-21T00:36:33;2.03;;;1.05;;
49139;SDS011;34959;49.310;8.646;2023-02-21T00:39:16;1.70;;;0.90;;
49139;SDS011;34959;49.310;8.646;2023-02-21T00:42:01;1.08;;;0.75;;
49139;SDS011;34959;49.310;8.646;2023-02-21T00:44:45;2.13;;;0.88;;
49139;SDS011;34959;49.310;8.646;2023-02-21T00:47:29;0.90;;;0.75;;
49139;SDS011;34959;49.310;8.646;2023-02-21T00:50:13;1.30;;;0.70;;
49139;SDS011;34959;49.310;8.646;2023-02-21T00:52:57;4.90;;;1.27;;
49139;SDS011;34959;49.310;8.646;2023-02-21T00:55:41;6.32;;;1.00;;
49139;SDS011;34959;49.310;8.646;2023-02-21T00:58:26;1.75;;;1.10;;
49139;SDS011;34959;49.310;8.646;2023-02-21T01:01:10;3.53;;;1.10;;
49139;SDS011;34959;49.310;8.646;2023-02-21T01:03:56;1.77;;;1.15;;
49139;SDS011;34959;49.310;8.646;2023-02-21T01:06:40;1.27;;;0.95;;
49139;SDS011;34959;49.310;8.646;2023-02-21T01:09:24;4.60;;;1.00;;
49139;SDS011;34959;49.310;8.646;2023-02-21T01:12:08;2.25;;;1.08;;
49139;SDS011;34959;49.310;8.646;2023-02-21T01:14:52;5.35;;;1.33;;
49139;SDS011;34959;49.310;8.646;2023-02-21T01:17:36;3.03;;;1.30;;
49139;SDS011;34959;49.310;8.646;2023-02-21T01:20:20;2.40;;;1.20;;
49139;SDS011;34959;49.310;8.646;2023-02-21T01:23:04;1.98;;;1.02;;
49139;SDS011;34959;49.310;8.646;2023-02-21T01:25:47;1.58;;;1.17;;
49139;SDS011;34959;49.310;8.646;2023-02-21T01:28:31;1.73;;;1.10;;
49139;SDS011;34959;49.310;8.646;2023-02-21T01:31:18;1.95;;;1.27;;
49139;SDS011;34959;49.310;8.646;2023-02-21T01:34:02;1.70;;;1.00;;
49139;SDS011;34959;49.310;8.646;2023-02-21T01:36:47;1.30;;;0.85;;
49139;SDS011;34959;49.310;8.646;2023-02-21T01:39:31;1.85;;;1.10;;
49139;SDS011;34959;49.310;8.646;2023-02-21T01:42:16;1.92;;;1.20;;
49139;SDS011;34959;49.310;8.646;2023-02-21T01:48:06;1.42;;;1.00;;
49139;SDS011;34959;49.310;8.646;2023-02-21T01:50:52;1.63;;;1.10;;
49139;SDS011;34959;49.310;8.646;2023-02-21T01:53:37;2.08;;;1.02;;
49139;SDS011;34959;49.310;8.646;2023-02-21T01:56:20;1.58;;;0.98;;
49139;SDS011;34959;49.310;8.646;2023-02-21T01:59:05;1.60;;;1.20;;
49139;SDS011;34959;49.310;8.646;2023-02-21T02:01:57;1.77;;;1.20;;
49139;SDS011;34959;49.310;8.646;2023-02-21T02:04:46;2.55;;;1.08;;
49139;SDS011;34959;49.310;8.646;2023-02-21T02:07:31;2.53;;;0.95;;
49139;SDS011;34959;49.310;8.646;2023-02-21T02:10:15;3.15;;;1.10;;
49139;SDS011;34959;49.310;8.646;2023-02-21T02:18:12;2.05;;;1.00;;
49139;SDS011;34959;49.310;8.646;2023-02-21T02:21:01;2.13;;;0.90;;
49139;SDS011;34959;49.310;8.646;2023-02-21T02:43:18;1.80;;;1.20;;
49139;SDS011;34959;49.310;8.646;2023-02-21T02:45:47;2.40;;;1.20;;
49139;SDS011;34959;49.310;8.646;2023-02-21T02:51:02;2.25;;;1.15;;
49139;SDS011;34959;49.310;8.646;2023-02-21T02:53:30;1.60;;;1.10;;
49139;SDS011;34959;49.310;8.646;2023-02-21T02:55:57;3.20;;;1.20;;
49139;SDS011;34959;49.310;8.646;2023-02-21T02:58:25;2.08;;;1.30;;
49139;SDS011;34959;49.310;8.646;2023-02-21T03:01:03;1.75;;;1.13;;
49139;SDS011;34959;49.310;8.646;2023-02-21T03:06:05;1.97;;;1.00;;
49139;SDS011;34959;49.310;8.646;2023-02-21T03:11:15;1.92;;;1.25;;
49139;SDS011;34959;49.310;8.646;2023-02-21T03:13:47;2.20;;;1.20;;
49139;SDS011;34959;49.310;8.646;2023-02-21T03:18:49;1.33;;;1.10;;
49139;SDS011;34959;49.310;8.646;2023-02-21T03:21:29;1.73;;;1.08;;
49139;SDS011;34959;49.310;8.646;2023-02-21T03:23:57;2.22;;;1.00;;
49139;SDS011;34959;49.310;8.646;2023-02-21T03:26:25;2.05;;;1.13;;
49139;SDS011;34959;49.310;8.646;2023-02-21T03:28:51;2.33;;;1.23;;
49139;SDS011;34959;49.310;8.646;2023-02-21T03:31:18;2.42;;;1.13;;
49139;SDS011;34959;49.310;8.646;2023-02-21T03:33:46;2.60;;;1.17;;
49139;SDS011;34959;49.310;8.646;2023-02-21T03:36:11;2.30;;;1.05;;
49139;SDS011;34959;49.310;8.646;2023-02-21T03:38:36;2.50;;;1.40;;
49139;SDS011;34959;49.310;8.646;2023-02-21T03:41:02;1.55;;;1.20;;
49139;SDS011;34959;49.310;8.646;2023-02-21T03:43:27;2.03;;;1.15;;
49139;SDS011;34959;49.310;8.646;2023-02-21T03:45:53;1.98;;;1.23;;
49139;SDS011;34959;49.310;8.646;2023-02-21T03:48:18;1.85;;;1.23;;
49139;SDS011;34959;49.310;8.646;2023-02-21T03:50:44;2.25;;;1.08;;
49139;SDS011;34959;49.310;8.646;2023-02-21T03:53:09;4.35;;;1.30;;
49139;SDS011;34959;49.310;8.646;2023-02-21T03:55:35;1.13;;;1.02;;
49139;SDS011;34959;49.310;8.646;2023-02-21T03:58:00;1.65;;;1.23;;
49139;SDS011;34959;49.310;8.646;2023-02-21T04:00:26;1.80;;;1.05;;
49139;SDS011;34959;49.310;8.646;2023-02-21T04:02:51;1.92;;;1.23;;
49139;SDS011;34959;49.310;8.646;2023-02-21T04:05:16;2.38;;;1.40;;
49139;SDS011;34959;49.310;8.646;2023-02-21T04:07:42;1.20;;;1.00;;
49139;SDS011;34959;49.310;8.646;2023-02-21T04:10:07;1.50;;;1.00;;
49139;SDS011;34959;49.310;8.646;2023-02-21T04:12:33;2.42;;;1.20;;
49139;SDS011;34959;49.310;8.646;2023-02-21T04:14:58;1.92;;;1.30;;
49139;SDS011;34959;49.310;8.646;2023-02-21T04:17:24;1.63;;;1.15;;
49139;SDS011;34959;49.310;8.646;2023-02-21T04:19:50;1.70;;;1.15;;
49139;SDS011;34959;49.310;8.646;2023-02-21T04:22:16;2.00;;;1.02;;
49139;SDS011;34959;49.310;8.646;2023-02-21T04:24:41;1.83;;;1.10;;
49139;SDS011;34959;49.310;8.646;2023-02-21T04:27:07;1.42;;;1.10;;
49139;SDS011;34959;49.310;8.646;2023-02-21T04:29:32;2.45;;;1.45;;
49139;SDS011;34959;49.310;8.646;2023-02-21T04:31:58;1.40;;;0.98;;
49139;SDS011;34959;49.310;8.646;2023-02-21T04:34:23;2.22;;;1.20;;
49139;SDS011;34959;49.310;8.646;2023-02-21T04:36:49;1.67;;;1.15;;
49139;SDS011;34959;49.310;8.646;2023-02-21T04:39:14;1.80;;;1.27;;
49139;SDS011;34959;49.310;8.646;2023-02-21T04:41:40;2.20;;;1.15;;
49139;SDS011;34959;49.310;8.646;2023-02-21T04:44:05;3.35;;;1.30;;
49139;SDS011;34959;49.310;8.646;2023-02-21T04:46:30;1.65;;;1.15;;
49139;SDS011;34959;49.310;8.646;2023-02-21T04:48:56;1.85;;;1.30;;
49139;SDS011;34959;49.310;8.646;2023-02-21T04:51:23;1.52;;;1.17;;
49139;SDS011;34959;49.310;8.646;2023-02-21T04:53:49;3.13;;;1.40;;
49139;SDS011;34959;49.310;8.646;2023-02-21T04:56:20;2.03;;;1.15;;
49139;SDS011;34959;49.310;8.646;2023-02-21T04:58:47;2.17;;;1.10;;
49139;SDS011;34959;49.310;8.646;2023-02-21T05:01:13;1.60;;;1.20;;
49139;SDS011;34959;49.310;8.646;2023-02-21T05:03:39;1.77;;;1.30;;
49139;SDS011;34959;49.310;8.646;2023-02-21T05:06:04;2.42;;;1.50;;
49139;SDS011;34959;49.310;8.646;2023-02-21T05:08:30;2.08;;;1.20;;
49139;SDS011;34959;49.310;8.646;2023-02-21T05:10:56;2.05;;;1.30;;
49139;SDS011;34959;49.310;8.646;2023-02-21T05:13:22;1.35;;;1.10;;
49139;SDS011;34959;49.310;8.646;2023-02-21T05:15:47;2.75;;;1.40;;
49139;SDS011;34959;49.310;8.646;2023-02-21T05:18:13;1.88;;;1.17;;
49139;SDS011;34959;49.310;8.646;2023-02-21T05:20:50;1.83;;;1.20;;
49139;SDS011;34959;49.310;8.646;2023-02-21T05:23:16;1.70;;;1.40;;
49139;SDS011;34959;49.310;8.646;2023-02-21T05:25:43;2.28;;;1.33;;
49139;SDS011;34959;49.310;8.646;2023-02-21T05:28:08;1.92;;;1.20;;
49139;SDS011;34959;49.310;8.646;2023-02-21T05:30:34;3.35;;;1.13;;
49139;SDS011;34959;49.310;8.646;2023-02-21T05:32:59;2.13;;;1.10;;
49139;SDS011;34959;49.310;8.646;2023-02-21T05:35:25;2.58;;;1.50;;
49139;SDS011;34959;49.310;8.646;2023-02-21T05:37:51;1.90;;;1.05;;
49139;SDS011;34959;49.310;8.646;2023-02-21T05:40:16;1.90;;;1.50;;
49139;SDS011;34959;49.310;8.646;2023-02-21T05:42:42;2.83;;;1.38;;
49139;SDS011;34959;49.310;8.646;2023-02-21T05:45:07;1.65;;;1.10;;
49139;SDS011;34959;49.310;8.646;2023-02-21T05:47:34;2.00;;;1.50;;
49139;SDS011;34959;49.310;8.646;2023-02-21T05:49:59;2.20;;;1.38;;
49139;SDS011;34959;49.310;8.646;2023-02-21T05:52:25;1.85;;;1.10;;
49139;SDS011;34959;49.310;8.646;2023-02-21T05:54:50;1.83;;;1.25;;
49139;SDS011;34959;49.310;8.646;2023-02-21T05:57:16;1.50;;;1.20;;
49139;SDS011;34959;49.310;8.646;2023-02-21T05:59:42;1.85;;;1.20;;
49139;SDS011;34959;49.310;8.646;2023-02-21T06:02:08;1.95;;;1.10;;
49139;SDS011;34959;49.310;8.646;2023-02-21T06:04:34;2.75;;;1.38;;
49139;SDS011;34959;49.310;8.646;2023-02-21T06:06:59;2.10;;;1.25;;
49139;SDS011;34959;49.310;8.646;2023-02-21T06:09:24;1.83;;;1.17;;
49139;SDS011;34959;49.310;8.646;2023-02-21T06:11:50;1.52;;;1.20;;
49139;SDS011;34959;49.310;8.646;2023-02-21T06:14:19;1.60;;;1.15;;
49139;SDS011;34959;49.310;8.646;2023-02-21T06:16:45;1.88;;;1.33;;
49139;SDS011;34959;49.310;8.646;2023-02-21T06:19:11;1.65;;;1.10;;
49139;SDS011;34959;49.310;8.646;2023-02-21T06:21:38;1.90;;;1.25;;
49139;SDS011;34959;49.310;8.646;2023-02-21T06:24:07;1.42;;;1.10;;
49139;SDS011;34959;49.310;8.646;2023-02-21T06:26:33;2.58;;;1.20;;
49139;SDS011;34959;49.310;8.646;2023-02-21T06:28:59;1.70;;;1.10;;
49139;SDS011;34959;49.310;8.646;2023-02-21T06:31:24;1.88;;;1.33;;
49139;SDS011;34959;49.310;8.646;2023-02-21T06:33:50;1.98;;;1.35;;
49139;SDS011;34959;49.310;8.646;2023-02-21T06:36:20;1.67;;;1.17;;
49139;SDS011;34959;49.310;8.646;2023-02-21T06:38:47;2.40;;;1.23;;
49139;SDS011;34959;49.310;8.646;2023-02-21T06:41:16;1.90;;;1.20;;
49139;SDS011;34959;49.310;8.646;2023-02-21T06:43:48;2.58;;;1.63;;
49139;SDS011;34959;49.310;8.646;2023-02-21T06:46:15;1.77;;;1.25;;
49139;SDS011;34959;49.310;8.646;2023-02-21T06:48:41;1.58;;;1.15;;
49139;SDS011;34959;49.310;8.646;2023-02-21T06:51:07;1.60;;;1.20;;
49139;SDS011;34959;49.310;8.646;2023-02-21T06:53:35;1.20;;;1.00;;
49139;SDS011;34959;49.310;8.646;2023-02-21T06:56:04;2.00;;;1.20;;
49139;SDS011;34959;49.310;8.646;2023-02-21T06:58:30;2.05;;;1.20;;
49139;SDS011;34959;49.310;8.646;2023-02-21T07:00:55;1.65;;;1.00;;
49139;SDS011;34959;49.310;8.646;2023-02-21T07:03:21;1.80;;;1.20;;
49139;SDS011;34959;49.310;8.646;2023-02-21T07:05:46;2.15;;;1.25;;
49139;SDS011;34959;49.310;8.646;2023-02-21T07:08:11;2.33;;;1.40;;
49139;SDS011;34959;49.310;8.646;2023-02-21T07:10:37;1.73;;;1.20;;
49139;SDS011;34959;49.310;8.646;2023-02-21T07:13:02;1.92;;;1.30;;
49139;SDS011;34959;49.310;8.646;2023-02-21T07:15:28;1.45;;;1.10;;
49139;SDS011;34959;49.310;8.646;2023-02-21T07:17:53;1.65;;;1.15;;
49139;SDS011;34959;49.310;8.646;2023-02-21T07:20:19;2.10;;;1.40;;
49139;SDS011;34959;49.310;8.646;2023-02-21T07:22:44;3.38;;;1.50;;
49139;SDS011;34959;49.310;8.646;2023-02-21T07:25:13;2.25;;;1.30;;
49139;SDS011;34959;49.310;8.646;2023-02-21T07:27:39;1.98;;;1.30;;
49139;SDS011;34959;49.310;8.646;2023-02-21T07:30:05;2.28;;;1.35;;
49139;SDS011;34959;49.310;8.646;2023-02-21T07:32:31;3.00;;;1.05;;
49139;SDS011;34959;49.310;8.646;2023-02-21T07:34:57;2.08;;;1.38;;
49139;SDS011;34959;49.310;8.646;2023-02-21T07:37:22;2.00;;;1.40;;
49139;SDS011;34959;49.310;8.646;2023-02-21T07:39:47;2.00;;;1.23;;
49139;SDS011;34959;49.310;8.646;2023-02-21T07:42:13;4.70;;;1.35;;
49139;SDS011;34959;49.310;8.646;2023-02-21T07:44:38;1.50;;;1.17;;
49139;SDS011;34959;49.310;8.646;2023-02-21T07:47:04;2.33;;;1.35;;
49139;SDS011;34959;49.310;8.646;2023-02-21T07:49:29;2.22;;;1.42;;
49139;SDS011;34959;49.310;8.646;2023-02-21T07:51:55;3.88;;;1.33;;
49139;SDS011;34959;49.310;8.646;2023-02-21T07:54:20;2.38;;;1.38;;
49139;SDS011;34959;49.310;8.646;2023-02-21T07:56:47;3.85;;;1.50;;
49139;SDS011;34959;49.310;8.646;2023-02-21T07:59:14;3.15;;;1.50;;
49139;SDS011;34959;49.310;8.646;2023-02-21T08:01:39;2.65;;;1.60;;
49139;SDS011;34959;49.310;8.646;2023-02-21T08:04:05;2.92;;;1.25;;
49139;SDS011;34959;49.310;8.646;2023-02-21T08:06:32;2.92;;;1.55;;
49139;SDS011;34959;49.310;8.646;2023-02-21T08:08:58;2.35;;;1.40;;
49139;SDS011;34959;49.310;8.646;2023-02-21T08:11:24;4.55;;;1.20;;
49139;SDS011;34959;49.310;8.646;2023-02-21T08:13:49;2.28;;;1.30;;
49139;SDS011;34959;49.310;8.646;2023-02-21T08:16:14;1.95;;;1.42;;
49139;SDS011;34959;49.310;8.646;2023-02-21T08:18:40;3.72;;;1.58;;
49139;SDS011;34959;49.310;8.646;2023-02-21T08:21:07;1.70;;;1.23;;
49139;SDS011;34959;49.310;8.646;2023-02-21T08:23:33;1.75;;;1.35;;
49139;SDS011;34959;49.310;8.646;2023-02-21T08:25:59;2.00;;;1.30;;
49139;SDS011;34959;49.310;8.646;2023-02-21T08:28:24;1.58;;;1.15;;
49139;SDS011;34959;49.310;8.646;2023-02-21T08:30:50;3.28;;;1.40;;
49139;SDS011;34959;49.310;8.646;2023-02-21T08:33:16;2.33;;;1.52;;
49139;SDS011;34959;49.310;8.646;2023-02-21T08:35:42;2.40;;;1.35;;
49139;SDS011;34959;49.310;8.646;2023-02-21T08:38:07;2.15;;;1.48;;
49139;SDS011;34959;49.310;8.646;2023-02-21T08:40:34;1.95;;;1.30;;
49139;SDS011;34959;49.310;8.646;2023-02-21T08:42:59;3.13;;;1.10;;
49139;SDS011;34959;49.310;8.646;2023-02-21T08:45:25;1.77;;;1.50;;
49139;SDS011;34959;49.310;8.646;2023-02-21T08:47:52;1.83;;;1.30;;
49139;SDS011;34959;49.310;8.646;2023-02-21T08:50:18;3.97;;;1.60;;
49139;SDS011;34959;49.310;8.646;2023-02-21T08:52:45;2.42;;;1.60;;
49139;SDS011;34959;49.310;8.646;2023-02-21T08:55:11;3.10;;;1.38;;
49139;SDS011;34959;49.310;8.646;2023-02-21T08:57:36;3.45;;;1.50;;
49139;SDS011;34959;49.310;8.646;2023-02-21T09:00:02;1.98;;;1.38;;
49139;SDS011;34959;49.310;8.646;2023-02-21T09:02:30;4.03;;;1.33;;
49139;SDS011;34959;49.310;8.646;2023-02-21T09:04:56;1.88;;;1.30;;
49139;SDS011;34959;49.310;8.646;2023-02-21T09:07:22;4.68;;;1.52;;
49139;SDS011;34959;49.310;8.646;2023-02-21T09:09:48;4.63;;;1.52;;
49139;SDS011;34959;49.310;8.646;2023-02-21T09:12:13;5.72;;;2.60;;
49139;SDS011;34959;49.310;8.646;2023-02-21T09:14:39;8.55;;;3.25;;
49139;SDS011;34959;49.310;8.646;2023-02-21T09:17:07;9.10;;;3.00;;
49139;SDS011;34959;49.310;8.646;2023-02-21T09:19:34;13.15;;;2.85;;
49139;SDS011;34959;49.310;8.646;2023-02-21T09:21:59;5.38;;;2.42;;
49139;SDS011;34959;49.310;8.646;2023-02-21T09:24:27;5.38;;;2.60;;
49139;SDS011;34959;49.310;8.646;2023-02-21T09:26:53;6.18;;;2.47;;
49139;SDS011;34959;49.310;8.646;2023-02-21T09:29:20;5.28;;;2.40;;
49139;SDS011;34959;49.310;8.646;2023-02-21T09:31:46;3.88;;;2.20;;
49139;SDS011;34959;49.310;8.646;2023-02-21T09:34:11;5.20;;;2.10;;
49139;SDS011;34959;49.310;8.646;2023-02-21T09:36:37;3.95;;;2.10;;
49139;SDS011;34959;49.310;8.646;2023-02-21T09:39:02;5.30;;;2.30;;
49139;SDS011;34959;49.310;8.646;2023-02-21T09:41:31;4.90;;;2.15;;
49139;SDS011;34959;49.310;8.646;2023-02-21T09:43:57;4.90;;;1.90;;
49139;SDS011;34959;49.310;8.646;2023-02-21T09:46:36;3.83;;;2.05;;
49139;SDS011;34959;49.310;8.646;2023-02-21T09:49:05;4.03;;;1.73;;
49139;SDS011;34959;49.310;8.646;2023-02-21T09:51:34;3.80;;;2.00;;
49139;SDS011;34959;49.310;8.646;2023-02-21T09:54:05;2.72;;;1.70;;
49139;SDS011;34959;49.310;8.646;2023-02-21T09:56:38;9.13;;;5.28;;
49139;SDS011;34959;49.310;8.646;2023-02-21T09:59:11;8.73;;;6.32;;
49139;SDS011;34959;49.310;8.646;2023-02-21T10:01:55;10.43;;;6.50;;
49139;SDS011;34959;49.310;8.646;2023-02-21T10:10:04;7.40;;;3.58;;
49139;SDS011;34959;49.310;8.646;2023-02-21T10:12:43;6.82;;;3.40;;
49139;SDS011;34959;49.310;8.646;2023-02-21T10:15:19;5.90;;;3.38;;
49139;SDS011;34959;49.310;8.646;2023-02-21T10:20:34;3.90;;;2.50;;
49139;SDS011;34959;49.310;8.646;2023-02-21T10:23:03;4.70;;;2.40;;
49139;SDS011;34959;49.310;8.646;2023-02-21T10:25:40;5.20;;;2.63;;
49139;SDS011;34959;49.310;8.646;2023-02-21T10:28:08;4.10;;;2.53;;
49139;SDS011;34959;49.310;8.646;2023-02-21T10:30:44;5.90;;;2.35;;
49139;SDS011;34959;49.310;8.646;2023-02-21T10:33:11;5.90;;;2.60;;
49139;SDS011;34959;49.310;8.646;2023-02-21T10:35:37;4.68;;;2.60;;
49139;SDS011;34959;49.310;8.646;2023-02-21T10:38:10;5.25;;;2.38;;
49139;SDS011;34959;49.310;8.646;2023-02-21T10:40:54;4.35;;;2.25;;
49139;SDS011;34959;49.310;8.646;2023-02-21T10:43:27;5.30;;;2.60;;
49139;SDS011;34959;49.310;8.646;2023-02-21T10:46:04;5.03;;;2.30;;
49139;SDS011;34959;49.310;8.646;2023-02-21T10:48:36;4.90;;;1.90;;
49139;SDS011;34959;49.310;8.646;2023-02-21T10:53:36;5.13;;;2.10;;
49139;SDS011;34959;49.310;8.646;2023-02-21T10:56:06;5.53;;;2.40;;
49139;SDS011;34959;49.310;8.646;2023-02-21T10:58:33;13.45;;;2.78;;
49139;SDS011;34959;49.310;8.646;2023-02-21T11:01:09;2.88;;;1.92;;
49139;SDS011;34959;49.310;8.646;2023-02-21T11:03:36;3.53;;;1.90;;
49139;SDS011;34959;49.310;8.646;2023-02-21T11:06:08;3.72;;;2.20;;
49139;SDS011;34959;49.310;8.646;2023-02-21T11:08:39;3.95;;;2.15;;
49139;SDS011;34959;49.310;8.646;2023-02-21T11:11:06;3.33;;;1.88;;
49139;SDS011;34959;49.310;8.646;2023-02-21T11:13:32;5.05;;;1.85;;
49139;SDS011;34959;49.310;8.646;2023-02-21T11:18:43;3.42;;;1.88;;
49139;SDS011;34959;49.310;8.646;2023-02-21T11:21:13;2.67;;;1.67;;
49139;SDS011;34959;49.310;8.646;2023-02-21T11:23:44;6.82;;;2.78;;
49139;SDS011;34959;49.310;8.646;2023-02-21T11:26:12;5.93;;;2.17;;
49139;SDS011;34959;49.310;8.646;2023-02-21T11:28:39;3.35;;;2.00;;
49139;SDS011;34959;49.310;8.646;2023-02-21T11:34:09;3.70;;;1.80;;
49139;SDS011;34959;49.310;8.646;2023-02-21T11:36:40;3.72;;;1.98;;
49139;SDS011;34959;49.310;8.646;2023-02-21T11:39:23;2.80;;;1.80;;
49139;SDS011;34959;49.310;8.646;2023-02-21T11:41:58;4.40;;;2.08;;
49139;SDS011;34959;49.310;8.646;2023-02-21T11:44:31;2.20;;;1.55;;
49139;SDS011;34959;49.310;8.646;2023-02-21T11:47:15;2.60;;;1.73;;
49139;SDS011;34959;49.310;8.646;2023-02-21T11:55:36;3.85;;;1.90;;
49139;SDS011;34959;49.310;8.646;2023-02-21T11:58:24;3.95;;;1.67;;
49139;SDS011;34959;49.310;8.646;2023-02-21T12:00:59;3.30;;;1.75;;
49139;SDS011;34959;49.310;8.646;2023-02-21T12:06:20;3.08;;;1.73;;
49139;SDS011;34959;49.310;8.646;2023-02-21T12:09:12;2.60;;;1.50;;
49139;SDS011;34959;49.310;8.646;2023-02-21T12:11:44;2.38;;;1.58;;
49139;SDS011;34959;49.310;8.646;2023-02-21T12:28:27;3.33;;;1.80;;
49139;SDS011;34959;49.310;8.646;2023-02-21T12:31:17;2.45;;;1.80;;
49139;SDS011;34959;49.310;8.646;2023-02-21T12:33:55;2.50;;;1.75;;
49139;SDS011;34959;49.310;8.646;2023-02-21T12:39:10;3.70;;;1.83;;
49139;SDS011;34959;49.310;8.646;2023-02-21T12:41:44;2.88;;;1.60;;
49139;SDS011;34959;49.310;8.646;2023-02-21T12:45:05;2.28;;;1.50;;
49139;SDS011;34959;49.310;8.646;2023-02-21T12:47:11;3.57;;;1.57;;
49139;SDS011;34959;49.310;8.646;2023-02-21T12:55:15;2.20;;;1.27;;
49139;SDS011;34959;49.310;8.646;2023-02-21T13:00:33;2.35;;;1.40;;
49139;SDS011;34959;49.310;8.646;2023-02-21T13:05:55;3.17;;;1.92;;
49139;SDS011;34959;49.310;8.646;2023-02-21T13:11:29;2.33;;;1.50;;
49139;SDS011;34959;49.310;8.646;2023-02-21T13:13:57;2.55;;;1.50;;
49139;SDS011;34959;49.310;8.646;2023-02-21T13:16:24;2.30;;;1.42;;
49139;SDS011;34959;49.310;8.646;2023-02-21T13:18:54;3.08;;;1.40;;
49139;SDS011;34959;49.310;8.646;2023-02-21T13:27:12;2.60;;;1.50;;
49139;SDS011;34959;49.310;8.646;2023-02-21T13:29:41;3.17;;;1.52;;
49139;SDS011;34959;49.310;8.646;2023-02-21T13:34:40;1.98;;;1.35;;
49139;SDS011;34959;49.310;8.646;2023-02-21T13:37:13;2.30;;;1.40;;
49139;SDS011;34959;49.310;8.646;2023-02-21T13:39:43;1.90;;;1.40;;
49139;SDS011;34959;49.310;8.646;2023-02-21T13:42:14;3.45;;;1.73;;
49139;SDS011;34959;49.310;8.646;2023-02-21T13:44:41;2.80;;;1.42;;
49139;SDS011;34959;49.310;8.646;2023-02-21T13:48:09;3.50;;;1.40;;
49139;SDS011;34959;49.310;8.646;2023-02-21T13:55:34;1.80;;;1.48;;
49139;SDS011;34959;49.310;8.646;2023-02-21T14:02:55;2.28;;;1.40;;
49139;SDS011;34959;49.310;8.646;2023-02-21T14:08:07;1.90;;;1.35;;
49139;SDS011;34959;49.310;8.646;2023-02-21T14:19:16;2.67;;;1.20;;
49139;SDS011;34959;49.310;8.646;2023-02-21T14:21:50;4.55;;;1.08;;
49139;SDS011;34959;49.310;8.646;2023-02-21T14:24:22;1.83;;;1.15;;
49139;SDS011;34959;49.310;8.646;2023-02-21T14:39:55;2.42;;;1.40;;
49139;SDS011;34959;49.310;8.646;2023-02-21T14:56:23;1.80;;;1.05;;
49139;SDS011;34959;49.310;8.646;2023-02-21T14:59:31;2.58;;;1.20;;
49139;SDS011;34959;49.310;8.646;2023-02-21T15:05:06;1.98;;;1.30;;
49139;SDS011;34959;49.310;8.646;2023-02-21T15:07:40;1.88;;;0.98;;
49139;SDS011;34959;49.310;8.646;2023-02-21T15:10:22;2.05;;;1.10;;
49139;SDS011;34959;49.310;8.646;2023-02-21T15:12:54;1.85;;;1.30;;
49139;SDS011;34959;49.310;8.646;2023-02-21T15:15:26;2.92;;;1.00;;
49139;SDS011;34959;49.310;8.646;2023-02-21T15:18:22;1.70;;;1.20;;
49139;SDS011;34959;49.310;8.646;2023-02-21T15:23:46;2.60;;;1.20;;
49139;SDS011;34959;49.310;8.646;2023-02-21T15:28:42;1.38;;;0.98;;
49139;SDS011;34959;49.310;8.646;2023-02-21T15:31:08;3.53;;;1.10;;
49139;SDS011;34959;49.310;8.646;2023-02-21T15:33:34;3.33;;;1.00;;
49139;SDS011;34959;49.310;8.646;2023-02-21T15:36:08;2.20;;;1.02;;
49139;SDS011;34959;49.310;8.646;2023-02-21T15:38:46;1.60;;;0.90;;
49139;SDS011;34959;49.310;8.646;2023-02-21T15:41:26;1.52;;;1.00;;
49139;SDS011;34959;49.310;8.646;2023-02-21T15:43:56;2.10;;;0.95;;
49139;SDS011;34959;49.310;8.646;2023-02-21T15:46:44;2.35;;;1.08;;
49139;SDS011;34959;49.310;8.646;2023-02-21T15:49:17;1.70;;;1.00;;
49139;SDS011;34959;49.310;8.646;2023-02-21T15:51:44;1.17;;;0.93;;
49139;SDS011;34959;49.310;8.646;2023-02-21T15:56:41;1.98;;;1.17;;
49139;SDS011;34959;49.310;8.646;2023-02-21T16:01:37;2.72;;;1.33;;
49139;SDS011;34959;49.310;8.646;2023-02-21T16:04:20;3.10;;;1.00;;
49139;SDS011;34959;49.310;8.646;2023-02-21T16:06:50;2.58;;;1.00;;
49139;SDS011;34959;49.310;8.646;2023-02-21T16:09:31;3.35;;;1.13;;
49139;SDS011;34959;49.310;8.646;2023-02-21T16:12:02;2.67;;;1.05;;
49139;SDS011;34959;49.310;8.646;2023-02-21T16:15:17;2.03;;;1.00;;
49139;SDS011;34959;49.310;8.646;2023-02-21T16:17:31;1.75;;;0.90;;
49139;SDS011;34959;49.310;8.646;2023-02-21T16:19:58;2.20;;;1.00;;
49139;SDS011;34959;49.310;8.646;2023-02-21T16:22:32;1.65;;;1.17;;
49139;SDS011;34959;49.310;8.646;2023-02-21T16:27:40;2.63;;;1.10;;
49139;SDS011;34959;49.310;8.646;2023-02-21T16:30:10;1.95;;;0.90;;
49139;SDS011;34959;49.310;8.646;2023-02-21T16:32:38;2.00;;;1.20;;
49139;SDS011;34959;49.310;8.646;2023-02-21T16:35:05;0.98;;;0.77;;
49139;SDS011;34959;49.310;8.646;2023-02-21T16:37:35;1.50;;;0.73;;
49139;SDS011;34959;49.310;8.646;2023-02-21T16:40:04;2.20;;;1.00;;
49139;SDS011;34959;49.310;8.646;2023-02-21T16:42:39;2.28;;;1.02;;
49139;SDS011;34959;49.310;8.646;2023-02-21T16:45:05;1.70;;;1.10;;
49139;SDS011;34959;49.310;8.646;2023-02-21T16:47:30;4.13;;;0.88;;
49139;SDS011;34959;49.310;8.646;2023-02-21T16:49:56;1.52;;;1.10;;
49139;SDS011;34959;49.310;8.646;2023-02-21T16:52:21;1.40;;;0.85;;
49139;SDS011;34959;49.310;8.646;2023-02-21T16:54:46;1.80;;;1.10;;
49139;SDS011;34959;49.310;8.646;2023-02-21T16:57:12;2.25;;;1.02;;
49139;SDS011;34959;49.310;8.646;2023-02-21T16:59:40;1.38;;;1.10;;
49139;SDS011;34959;49.310;8.646;2023-02-21T17:02:07;1.02;;;0.85;;
49139;SDS011;34959;49.310;8.646;2023-02-21T17:04:37;1.55;;;1.10;;
49139;SDS011;34959;49.310;8.646;2023-02-21T17:07:03;1.35;;;1.00;;
49139;SDS011;34959;49.310;8.646;2023-02-21T17:09:33;3.10;;;0.90;;
49139;SDS011;34959;49.310;8.646;2023-02-21T17:12:03;1.50;;;0.98;;
49139;SDS011;34959;49.310;8.646;2023-02-21T17:14:30;1.58;;;0.90;;
49139;SDS011;34959;49.310;8.646;2023-02-21T17:16:55;1.45;;;0.90;;
49139;SDS011;34959;49.310;8.646;2023-02-21T17:19:20;1.33;;;0.80;;
49139;SDS011;34959;49.310;8.646;2023-02-21T17:21:47;1.88;;;1.00;;
49139;SDS011;34959;49.310;8.646;2023-02-21T17:24:13;1.20;;;0.82;;
49139;SDS011;34959;49.310;8.646;2023-02-21T17:26:39;1.55;;;0.90;;
49139;SDS011;34959;49.310;8.646;2023-02-21T17:29:04;1.27;;;0.90;;
49139;SDS011;34959;49.310;8.646;2023-02-21T17:31:30;1.50;;;1.05;;
49139;SDS011;34959;49.310;8.646;2023-02-21T17:33:56;2.45;;;1.00;;
49139;SDS011;34959;49.310;8.646;2023-02-21T17:36:22;2.33;;;0.98;;
49139;SDS011;34959;49.310;8.646;2023-02-21T17:38:49;1.27;;;0.85;;
49139;SDS011;34959;49.310;8.646;2023-02-21T17:41:14;1.35;;;0.90;;
49139;SDS011;34959;49.310;8.646;2023-02-21T17:43:40;1.40;;;0.80;;
49139;SDS011;34959;49.310;8.646;2023-02-21T17:46:09;1.38;;;0.90;;
49139;SDS011;34959;49.310;8.646;2023-02-21T17:48:36;1.23;;;0.80;;
49139;SDS011;34959;49.310;8.646;2023-02-21T17:51:02;1.60;;;0.90;;
49139;SDS011;34959;49.310;8.646;2023-02-21T17:53:28;1.20;;;0.90;;
49139;SDS011;34959;49.310;8.646;2023-02-21T17:55:54;1.23;;;1.00;;
49139;SDS011;34959;49.310;8.646;2023-02-21T17:58:20;4.63;;;0.90;;